createdAt,value
2023-03-08T00:00:17.179Z,11.40
2023-03-08T00:03:04.716Z,10.90
2023-03-08T00:05:32.446Z,10.80
2023-03-08T00:08:00.041Z,10.30
2023-03-08T00:10:27.664Z,9.80
2023-03-08T00:12:55.303Z,10.60
2023-03-08T00:15:23.065Z,12.00
2023-03-08T00:17:50.794Z,11.40
2023-03-08T00:20:18.417Z,10.20
2023-03-08T00:22:46.027Z,9.00
2023-03-08T00:25:16.497Z,10.80
2023-03-08T00:27:44.107Z,11.30
2023-03-08T00:30:12.768Z,9.60
2023-03-08T00:32:40.650Z,11.50
2023-03-08T00:35:09.009Z,10.40
2023-03-08T00:37:39.667Z,9.40
2023-03-08T00:40:08.924Z,8.10
2023-03-08T00:42:36.520Z,9.80
2023-03-08T00:45:04.330Z,7.30
2023-03-08T00:47:32.039Z,8.30
2023-03-08T00:50:00.254Z,10.40
2023-03-08T00:52:29.410Z,10.80
2023-03-08T00:54:57.032Z,8.90
2023-03-08T00:57:25.873Z,10.00
2023-03-08T00:59:54.199Z,8.50
2023-03-08T01:02:22.496Z,9.40
2023-03-08T01:04:50.114Z,9.00
2023-03-08T01:07:18.264Z,7.70
2023-03-08T01:09:46.201Z,9.70
2023-03-08T01:12:14.770Z,11.80
2023-03-08T01:14:42.342Z,13.10
2023-03-08T01:17:11.348Z,14.10
2023-03-08T01:19:41.965Z,9.60
2023-03-08T01:22:10.092Z,8.90
2023-03-08T01:24:39.424Z,11.50
2023-03-08T01:27:07.283Z,9.60
2023-03-08T01:29:34.878Z,9.40
2023-03-08T01:32:02.668Z,10.90
2023-03-08T01:34:30.330Z,14.50
2023-03-08T01:36:58.018Z,11.80
2023-03-08T01:39:25.864Z,12.30
2023-03-08T01:41:53.632Z,14.00
2023-03-08T01:44:23.000Z,12.60
2023-03-08T01:46:51.361Z,14.30
2023-03-08T01:49:43.254Z,14.90
2023-03-08T01:52:26.152Z,16.10
2023-03-08T01:55:04.045Z,16.30
2023-03-08T01:57:35.979Z,17.70
2023-03-08T02:00:10.031Z,17.40
2023-03-08T02:02:48.580Z,17.40
2023-03-08T02:05:17.618Z,17.50
2023-03-08T02:07:46.220Z,16.60
2023-03-08T02:10:14.339Z,16.20
2023-03-08T02:12:42.324Z,13.30
2023-03-08T02:15:13.713Z,13.30
2023-03-08T02:17:43.531Z,13.60
2023-03-08T02:20:28.595Z,12.90
2023-03-08T02:23:07.313Z,12.10
2023-03-08T02:25:34.915Z,12.00
2023-03-08T02:28:03.474Z,13.00
2023-03-08T02:30:33.650Z,13.30
2023-03-08T02:33:01.677Z,13.20
2023-03-08T02:35:30.363Z,12.60
2023-03-08T02:37:58.025Z,10.50
2023-03-08T02:40:25.907Z,11.30
2023-03-08T02:42:56.074Z,12.20
2023-03-08T02:45:23.718Z,11.40
2023-03-08T02:47:51.359Z,11.20
2023-03-08T02:50:19.556Z,10.70
2023-03-08T02:52:47.240Z,10.10
2023-03-08T02:55:15.034Z,10.90
2023-03-08T02:57:42.886Z,10.10
2023-03-08T03:00:11.428Z,10.20
2023-03-08T03:02:39.185Z,9.50
2023-03-08T03:05:10.898Z,9.20
2023-03-08T03:07:41.215Z,9.30
2023-03-08T03:10:12.772Z,8.50
2023-03-08T03:12:43.812Z,8.40
2023-03-08T03:15:14.013Z,8.60
2023-03-08T03:17:42.160Z,8.50
2023-03-08T03:20:10.980Z,8.10
2023-03-08T03:22:38.741Z,8.30
2023-03-08T03:25:07.375Z,7.90
2023-03-08T03:27:35.474Z,8.00
2023-03-08T03:30:04.578Z,8.40
2023-03-08T03:32:33.469Z,8.80
2023-03-08T03:35:01.333Z,8.80
2023-03-08T03:37:29.687Z,10.50
2023-03-08T03:39:57.706Z,9.30
2023-03-08T03:42:26.385Z,10.40
2023-03-08T03:45:14.004Z,9.60
2023-03-08T03:47:41.683Z,10.10
2023-03-08T03:50:10.408Z,11.20
2023-03-08T03:52:45.390Z,12.40
2023-03-08T03:55:13.068Z,12.60
2023-03-08T03:57:42.420Z,13.20
2023-03-08T04:00:13.147Z,13.80
2023-03-08T04:02:46.450Z,14.60
2023-03-08T04:05:15.244Z,13.60
2023-03-08T04:07:46.570Z,15.70
2023-03-08T04:10:14.969Z,15.40
2023-03-08T04:12:44.429Z,15.60
2023-03-08T04:15:12.122Z,16.50
2023-03-08T04:17:39.962Z,17.10
2023-03-08T04:20:08.576Z,17.00
2023-03-08T04:22:38.494Z,17.50
2023-03-08T04:25:17.849Z,17.10
2023-03-08T04:27:50.758Z,18.30
2023-03-08T04:30:21.070Z,17.20
2023-03-08T04:32:49.194Z,17.70
2023-03-08T04:35:17.327Z,17.50
2023-03-08T04:37:47.707Z,17.40
2023-03-08T04:40:17.987Z,17.30
2023-03-08T04:42:58.620Z,18.20
2023-03-08T04:45:32.195Z,18.90
2023-03-08T04:48:01.725Z,19.50
2023-03-08T04:50:31.011Z,20.20
2023-03-08T04:52:58.707Z,20.30
2023-03-08T04:55:26.880Z,21.40
2023-03-08T04:57:54.523Z,20.00
2023-03-08T05:00:22.745Z,19.50
2023-03-08T05:02:50.391Z,20.50
2023-03-08T05:05:19.196Z,20.20
2023-03-08T05:07:46.935Z,18.90
2023-03-08T05:10:14.835Z,18.90
2023-03-08T05:12:42.823Z,20.70
2023-03-08T05:15:11.191Z,19.90
2023-03-08T05:17:38.844Z,20.00
2023-03-08T05:20:07.520Z,20.80
2023-03-08T05:22:55.142Z,20.10
2023-03-08T05:25:25.982Z,19.80
2023-03-08T05:27:54.066Z,20.80
2023-03-08T05:30:22.122Z,21.00
2023-03-08T05:32:49.993Z,20.40
2023-03-08T05:35:17.772Z,21.00
2023-03-08T05:37:46.496Z,21.40
2023-03-08T05:40:14.275Z,19.80
2023-03-08T05:42:42.869Z,19.60
2023-03-08T05:45:11.495Z,18.40
2023-03-08T05:47:40.116Z,22.00
2023-03-08T05:50:09.794Z,21.30
2023-03-08T05:52:39.040Z,19.90
2023-03-08T05:55:07.140Z,19.00
2023-03-08T05:57:36.622Z,18.50
2023-03-08T06:00:04.905Z,18.90
2023-03-08T06:02:43.364Z,17.50
2023-03-08T06:05:11.825Z,16.60
2023-03-08T06:07:39.791Z,17.90
2023-03-08T06:10:10.909Z,18.60
2023-03-08T06:12:39.360Z,18.20
2023-03-08T06:15:09.004Z,18.10
2023-03-08T06:17:37.858Z,18.10
2023-03-08T06:20:07.067Z,18.10
2023-03-08T06:22:35.794Z,18.10
2023-03-08T06:25:04.234Z,17.40
2023-03-08T06:27:34.998Z,16.80
2023-03-08T06:30:06.560Z,18.00
2023-03-08T06:32:36.233Z,17.20
2023-03-08T06:35:04.908Z,16.40
2023-03-08T06:37:34.767Z,17.50
2023-03-08T06:40:04.830Z,18.40
2023-03-08T06:42:41.122Z,17.40
2023-03-08T06:45:11.015Z,18.90
2023-03-08T06:47:38.641Z,19.20
2023-03-08T06:50:06.889Z,20.90
2023-03-08T06:52:37.843Z,18.80
2023-03-08T06:55:06.663Z,21.10
2023-03-08T06:57:34.404Z,20.00
2023-03-08T07:00:02.232Z,19.80
2023-03-08T07:02:29.921Z,20.90
2023-03-08T07:04:57.519Z,21.20
2023-03-08T07:07:25.121Z,22.10
2023-03-08T07:10:01.516Z,21.10
2023-03-08T07:12:36.714Z,22.00
2023-03-08T07:15:04.740Z,24.60
2023-03-08T07:17:34.744Z,22.90
2023-03-08T07:20:06.804Z,22.70
2023-03-08T07:22:34.471Z,24.10
2023-03-08T07:25:02.093Z,22.60
2023-03-08T07:27:29.915Z,21.20
2023-03-08T07:29:57.727Z,20.70
2023-03-08T07:32:28.885Z,20.40
2023-03-08T07:34:57.126Z,20.20
2023-03-08T07:37:24.810Z,19.50
2023-03-08T07:39:52.486Z,20.40
2023-03-08T07:42:20.084Z,18.80
2023-03-08T07:44:54.253Z,20.50
2023-03-08T07:47:21.862Z,24.60
2023-03-08T07:49:49.533Z,21.60
2023-03-08T07:52:17.216Z,20.10
2023-03-08T07:54:44.921Z,19.10
2023-03-08T07:57:14.181Z,25.60
2023-03-08T07:59:42.397Z,23.60
2023-03-08T08:02:14.443Z,16.50
2023-03-08T08:04:42.487Z,21.10
2023-03-08T08:07:15.279Z,16.60
2023-03-08T08:09:42.984Z,17.00
2023-03-08T08:12:11.058Z,15.00
2023-03-08T08:14:38.961Z,13.90
2023-03-08T08:17:06.673Z,17.00
2023-03-08T08:19:34.303Z,16.70
2023-03-08T08:22:02.273Z,15.00
2023-03-08T08:24:30.974Z,13.60
2023-03-08T08:26:58.768Z,16.50
2023-03-08T08:29:26.498Z,16.80
2023-03-08T08:31:54.419Z,15.70
2023-03-08T08:34:22.028Z,16.60
2023-03-08T08:36:49.842Z,14.20
2023-03-08T08:39:17.494Z,16.40
2023-03-08T08:41:45.089Z,16.20
2023-03-08T08:44:12.671Z,15.40
2023-03-08T08:46:40.673Z,15.10
2023-03-08T08:49:08.307Z,14.00
2023-03-08T08:51:36.046Z,14.50
2023-03-08T08:54:03.792Z,13.20
2023-03-08T08:56:31.687Z,14.50
2023-03-08T08:59:02.117Z,12.60
2023-03-08T09:01:32.204Z,11.60
2023-03-08T09:04:00.490Z,13.60
2023-03-08T09:06:30.992Z,13.50
2023-03-08T09:08:59.367Z,12.60
2023-03-08T09:11:27.840Z,13.70
2023-03-08T09:13:55.887Z,12.40
2023-03-08T09:16:31.549Z,13.20
2023-03-08T09:19:00.960Z,11.90
2023-03-08T09:21:28.936Z,13.50
2023-03-08T09:24:00.372Z,14.10
2023-03-08T09:26:32.439Z,15.00
2023-03-08T09:29:04.912Z,12.30
2023-03-08T09:31:34.656Z,13.00
2023-03-08T09:34:04.748Z,13.30
2023-03-08T09:36:32.429Z,13.20
2023-03-08T09:39:00.108Z,9.70
2023-03-08T09:41:55.980Z,9.90
2023-03-08T09:44:26.428Z,11.30
2023-03-08T09:47:02.583Z,13.70
2023-03-08T09:49:32.344Z,12.80
2023-03-08T09:52:15.096Z,10.80
2023-03-08T09:54:42.767Z,11.60
2023-03-08T09:57:21.317Z,12.30
2023-03-08T10:00:00.559Z,11.50
2023-03-08T10:02:57.057Z,11.10
2023-03-08T10:05:33.682Z,11.10
2023-03-08T10:08:35.675Z,11.00
2023-03-08T10:11:13.511Z,11.90
2023-03-08T10:13:43.110Z,11.80
2023-03-08T10:16:25.347Z,10.60
2023-03-08T10:19:07.458Z,10.90
2023-03-08T10:21:38.090Z,11.70
2023-03-08T10:24:30.329Z,12.40
2023-03-08T10:27:04.789Z,11.00
2023-03-08T10:29:32.620Z,11.20
2023-03-08T10:32:00.548Z,10.50
2023-03-08T10:34:32.178Z,14.40
2023-03-08T10:37:02.737Z,9.10
2023-03-08T10:39:30.514Z,9.10
2023-03-08T10:42:02.868Z,8.50
2023-03-08T10:44:36.518Z,8.60
2023-03-08T10:47:19.292Z,8.40
2023-03-08T10:49:47.550Z,7.70
2023-03-08T10:52:26.026Z,8.40
2023-03-08T10:55:18.336Z,8.00
2023-03-08T10:58:03.902Z,8.40
2023-03-08T11:00:37.472Z,9.50
2023-03-08T11:03:17.575Z,8.20
2023-03-08T11:05:59.426Z,10.70
2023-03-08T11:08:31.393Z,23.30
2023-03-08T11:11:00.831Z,9.70
2023-03-08T11:13:37.767Z,9.50
2023-03-08T11:16:27.289Z,10.20
2023-03-08T11:19:21.126Z,10.00
2023-03-08T11:21:56.396Z,8.70
2023-03-08T11:24:39.871Z,9.30
2023-03-08T11:27:41.460Z,9.70
2023-03-08T11:30:24.383Z,9.90
2023-03-08T11:33:30.270Z,8.90
2023-03-08T11:36:13.266Z,8.90
2023-03-08T11:38:42.306Z,9.20
2023-03-08T11:41:34.732Z,9.20
2023-03-08T11:44:19.160Z,7.90
2023-03-08T11:47:13.756Z,7.50
2023-03-08T11:50:14.517Z,8.00
2023-03-08T11:52:55.452Z,7.70
2023-03-08T11:55:45.243Z,9.10
2023-03-08T11:58:37.900Z,7.90
2023-03-08T12:01:52.317Z,8.00
2023-03-08T12:04:27.154Z,8.50
2023-03-08T12:06:56.489Z,8.70
2023-03-08T12:09:31.854Z,9.30
2023-03-08T12:12:16.451Z,8.00
2023-03-08T12:14:51.738Z,7.70
2023-03-08T12:17:26.127Z,7.90
2023-03-08T12:19:54.006Z,7.50
2023-03-08T12:22:28.656Z,7.20
2023-03-08T12:24:59.114Z,9.00
2023-03-08T12:27:50.591Z,8.50
2023-03-08T12:30:56.333Z,9.40
2023-03-08T12:33:26.286Z,8.70
2023-03-08T12:35:58.064Z,7.70
2023-03-08T12:38:45.801Z,7.10
2023-03-08T12:41:28.787Z,6.60
2023-03-08T12:44:04.341Z,7.40
2023-03-08T12:47:02.170Z,8.00
2023-03-08T12:49:36.801Z,7.70
2023-03-08T12:52:07.473Z,7.70
2023-03-08T12:54:36.045Z,7.50
2023-03-08T12:57:15.867Z,8.30
2023-03-08T12:59:44.693Z,9.60
2023-03-08T13:02:24.437Z,8.90
2023-03-08T13:05:14.490Z,9.40
2023-03-08T13:08:06.453Z,9.20
2023-03-08T13:10:39.558Z,9.90
2023-03-08T13:13:10.234Z,9.80
2023-03-08T13:15:39.136Z,11.20
2023-03-08T13:18:08.773Z,9.90
2023-03-08T13:20:41.567Z,10.10
2023-03-08T13:23:15.741Z,10.50
2023-03-08T13:26:11.947Z,11.40
2023-03-08T13:28:47.571Z,11.00
2023-03-08T13:31:35.961Z,10.90
2023-03-08T13:34:03.907Z,10.30
2023-03-08T13:36:33.262Z,10.30
2023-03-08T13:39:07.613Z,10.30
2023-03-08T13:41:38.064Z,11.10
2023-03-08T13:44:12.962Z,10.70
2023-03-08T13:46:42.953Z,10.00
2023-03-08T13:49:23.914Z,10.70
2023-03-08T13:51:55.103Z,10.60
2023-03-08T13:54:35.267Z,12.20
2023-03-08T13:57:05.685Z,12.00
2023-03-08T13:59:34.643Z,11.30
2023-03-08T14:02:02.377Z,11.80
2023-03-08T14:04:30.667Z,10.70
2023-03-08T14:07:00.291Z,10.90
2023-03-08T14:09:28.386Z,11.90
2023-03-08T14:12:06.664Z,10.90
2023-03-08T14:14:38.392Z,10.30
2023-03-08T14:17:06.259Z,11.50
2023-03-08T14:19:39.788Z,11.60
2023-03-08T14:22:14.505Z,11.60
2023-03-08T14:24:44.221Z,11.60
2023-03-08T14:27:14.983Z,11.50
2023-03-08T14:29:44.760Z,13.80
2023-03-08T14:32:13.127Z,12.50
2023-03-08T14:34:43.756Z,11.90
2023-03-08T14:37:11.456Z,12.30
2023-03-08T14:39:44.159Z,12.30
2023-03-08T14:42:25.137Z,12.70
2023-03-08T14:44:55.797Z,12.90
2023-03-08T14:47:27.122Z,12.20
2023-03-08T14:50:14.985Z,13.70
2023-03-08T14:52:48.469Z,13.20
2023-03-08T14:55:27.020Z,13.00
2023-03-08T14:57:58.228Z,13.50
2023-03-08T15:00:29.818Z,12.70
2023-03-08T15:02:58.687Z,12.70
2023-03-08T15:05:29.415Z,12.60
2023-03-08T15:07:59.233Z,13.30
2023-03-08T15:10:31.320Z,14.00
2023-03-08T15:13:00.192Z,13.80
2023-03-08T15:15:28.088Z,13.60
2023-03-08T15:17:55.855Z,14.00
2023-03-08T15:20:25.081Z,14.60
2023-03-08T15:22:55.108Z,13.90
2023-03-08T15:25:29.578Z,15.30
2023-03-08T15:27:57.308Z,16.50
2023-03-08T15:30:27.097Z,16.40
2023-03-08T15:32:57.315Z,17.10
2023-03-08T15:35:26.223Z,16.10
2023-03-08T15:37:54.021Z,16.80
2023-03-08T15:40:29.508Z,15.80
2023-03-08T15:42:58.133Z,15.60
2023-03-08T15:45:25.833Z,16.00
2023-03-08T15:47:58.605Z,17.70
2023-03-08T15:50:26.683Z,17.00
2023-03-08T15:52:54.764Z,17.30
2023-03-08T15:55:24.018Z,17.60
2023-03-08T15:57:52.115Z,18.00
2023-03-08T16:00:22.335Z,18.80
2023-03-08T16:02:52.048Z,19.40
2023-03-08T16:05:23.245Z,20.00
2023-03-08T16:08:02.299Z,20.20
2023-03-08T16:10:33.357Z,22.00
2023-03-08T16:13:00.979Z,22.60
2023-03-08T16:15:28.596Z,23.90
2023-03-08T16:17:56.282Z,24.20
2023-03-08T16:20:23.996Z,25.30
2023-03-08T16:22:52.307Z,26.40
2023-03-08T16:25:22.443Z,26.60
2023-03-08T16:27:50.127Z,25.90
2023-03-08T16:30:17.950Z,27.10
2023-03-08T16:32:45.718Z,28.50
2023-03-08T16:35:13.482Z,30.00
2023-03-08T16:37:41.375Z,32.30
2023-03-08T16:40:09.676Z,39.80
2023-03-08T16:42:37.314Z,39.10
2023-03-08T16:45:05.856Z,39.70
2023-03-08T16:47:33.616Z,36.00
2023-03-08T16:50:01.860Z,37.90
2023-03-08T16:52:29.573Z,37.80
2023-03-08T16:54:57.332Z,38.60
2023-03-08T16:57:25.145Z,36.70
2023-03-08T16:59:52.723Z,41.10
2023-03-08T17:02:21.740Z,39.30
2023-03-08T17:04:49.707Z,43.90
2023-03-08T17:07:18.666Z,43.50
2023-03-08T17:09:46.523Z,43.50
2023-03-08T17:12:14.194Z,44.10
2023-03-08T17:14:41.818Z,44.90
2023-03-08T17:17:10.429Z,47.70
2023-03-08T17:19:40.782Z,49.20
2023-03-08T17:22:09.122Z,49.50
2023-03-08T17:24:36.934Z,48.10
2023-03-08T17:27:04.705Z,49.40
2023-03-08T17:29:32.422Z,48.00
2023-03-08T17:32:00.087Z,47.70
2023-03-08T17:34:27.863Z,44.70
2023-03-08T17:36:55.687Z,43.10
2023-03-08T17:39:23.285Z,43.10
2023-03-08T17:41:51.043Z,41.90
2023-03-08T17:44:18.628Z,40.80
2023-03-08T17:46:46.240Z,42.20
2023-03-08T17:49:16.164Z,43.10
2023-03-08T17:51:44.007Z,42.40
2023-03-08T17:54:12.041Z,42.90
2023-03-08T17:56:40.969Z,44.40
2023-03-08T17:59:13.328Z,42.60
2023-03-08T18:01:41.237Z,43.40
2023-03-08T18:04:09.663Z,41.60
2023-03-08T18:06:39.824Z,42.10
2023-03-08T18:09:13.029Z,41.80
2023-03-08T18:11:41.401Z,41.70
2023-03-08T18:14:11.494Z,39.80
2023-03-08T18:16:40.188Z,39.70
2023-03-08T18:19:08.135Z,37.50
2023-03-08T18:21:36.258Z,39.20
2023-03-08T18:24:05.160Z,34.70
2023-03-08T18:26:33.022Z,37.20
2023-03-08T18:29:00.857Z,37.20
2023-03-08T18:31:31.048Z,38.00
2023-03-08T18:33:59.147Z,39.60
2023-03-08T18:36:27.220Z,38.30
2023-03-08T18:38:55.112Z,37.80
2023-03-08T18:41:26.323Z,38.10
2023-03-08T18:43:54.885Z,39.10
2023-03-08T18:46:30.534Z,38.10
2023-03-08T18:49:00.991Z,39.10
2023-03-08T18:51:29.414Z,37.50
2023-03-08T18:53:58.251Z,36.20
2023-03-08T18:56:27.934Z,40.00
2023-03-08T18:58:58.534Z,42.60
2023-03-08T19:01:28.646Z,45.70
2023-03-08T19:03:56.623Z,45.70
2023-03-08T19:06:24.235Z,43.60
2023-03-08T19:08:52.176Z,46.30
2023-03-08T19:11:25.209Z,49.40
2023-03-08T19:13:53.257Z,48.70
2023-03-08T19:16:22.481Z,51.10
2023-03-08T19:18:53.181Z,49.00
2023-03-08T19:21:26.502Z,47.30
2023-03-08T19:23:54.357Z,46.00
2023-03-08T19:26:37.037Z,46.90
2023-03-08T19:29:17.349Z,48.10
2023-03-08T19:31:46.864Z,49.00
2023-03-08T19:34:14.999Z,46.70
2023-03-08T19:36:44.218Z,47.30
2023-03-08T19:39:21.310Z,49.00
2023-03-08T19:41:51.056Z,47.20
2023-03-08T19:44:19.694Z,45.10
2023-03-08T19:46:47.758Z,44.20
2023-03-08T19:49:18.218Z,43.90
2023-03-08T19:51:50.687Z,42.90
2023-03-08T19:54:19.127Z,39.90
2023-03-08T19:56:46.979Z,34.40
2023-03-08T19:59:14.979Z,32.40
2023-03-08T20:01:43.406Z,32.20
2023-03-08T20:04:11.492Z,30.60
2023-03-08T20:06:46.955Z,30.40
2023-03-08T20:09:23.760Z,29.80
2023-03-08T20:11:57.488Z,30.50
2023-03-08T20:14:27.791Z,28.70
2023-03-08T20:16:56.218Z,29.50
2023-03-08T20:19:24.053Z,28.20
2023-03-08T20:21:51.817Z,25.90
2023-03-08T20:24:19.521Z,27.50
2023-03-08T20:26:47.280Z,31.60
2023-03-08T20:29:15.529Z,25.90
2023-03-08T20:31:44.956Z,28.40
2023-03-08T20:34:12.570Z,26.40
2023-03-08T20:36:40.210Z,25.60
2023-03-08T20:39:08.108Z,23.00
2023-03-08T20:41:35.709Z,24.50
2023-03-08T20:44:03.510Z,24.90
2023-03-08T20:46:33.481Z,25.80
2023-03-08T20:49:01.645Z,25.00
2023-03-08T20:51:29.391Z,24.40
2023-03-08T20:53:57.638Z,24.90
2023-03-08T20:56:26.249Z,25.40
2023-03-08T20:58:56.533Z,26.10
2023-03-08T21:01:29.682Z,23.80
2023-03-08T21:03:57.352Z,25.30
2023-03-08T21:06:28.043Z,26.10
2023-03-08T21:08:56.183Z,27.60
2023-03-08T21:11:23.829Z,29.60
2023-03-08T21:13:52.024Z,29.90
2023-03-08T21:16:22.345Z,29.10
2023-03-08T21:18:51.737Z,29.40
2023-03-08T21:21:27.208Z,27.40
2023-03-08T21:23:57.621Z,30.30
2023-03-08T21:26:26.367Z,26.00
2023-03-08T21:28:56.496Z,29.70
2023-03-08T21:31:24.581Z,39.10
2023-03-08T21:33:53.594Z,24.40
2023-03-08T21:36:21.665Z,25.50
2023-03-08T21:38:53.854Z,22.80
2023-03-08T21:41:24.171Z,23.00
2023-03-08T21:43:51.893Z,22.70
2023-03-08T21:46:19.989Z,20.60
2023-03-08T21:48:48.081Z,20.70
2023-03-08T21:51:15.902Z,20.90
2023-03-08T21:53:43.752Z,21.70
2023-03-08T21:56:14.168Z,20.80
2023-03-08T21:58:42.086Z,21.30
2023-03-08T22:01:21.420Z,22.30
2023-03-08T22:03:49.843Z,23.00
2023-03-08T22:06:18.200Z,22.20
2023-03-08T22:08:46.467Z,20.20
2023-03-08T22:11:14.486Z,21.70
2023-03-08T22:13:42.959Z,23.00
2023-03-08T22:16:10.788Z,21.90
2023-03-08T22:18:38.609Z,20.70
2023-03-08T22:21:06.507Z,21.10
2023-03-08T22:23:34.208Z,22.40
2023-03-08T22:26:02.070Z,22.30
2023-03-08T22:28:29.690Z,20.40
2023-03-08T22:30:57.297Z,22.10
2023-03-08T22:33:24.924Z,19.20
2023-03-08T22:35:52.571Z,19.30
2023-03-08T22:38:20.996Z,22.90
2023-03-08T22:40:48.683Z,21.40
2023-03-08T22:43:16.471Z,20.80
2023-03-08T22:45:44.147Z,22.70
2023-03-08T22:48:11.768Z,21.20
2023-03-08T22:50:40.534Z,19.40
2023-03-08T22:53:08.138Z,19.50
2023-03-08T22:55:35.757Z,18.90
2023-03-08T22:58:03.360Z,18.80
2023-03-08T23:00:31.004Z,18.80
2023-03-08T23:02:58.718Z,26.70
2023-03-08T23:05:26.500Z,17.70
2023-03-08T23:07:54.177Z,19.80
2023-03-08T23:10:21.922Z,20.50
2023-03-08T23:12:49.545Z,21.80
2023-03-08T23:15:17.455Z,20.60
2023-03-08T23:17:45.078Z,20.50
2023-03-08T23:20:13.548Z,18.50
2023-03-08T23:22:43.324Z,20.30
2023-03-08T23:25:12.627Z,21.00
2023-03-08T23:27:40.283Z,19.40
2023-03-08T23:30:09.276Z,21.00
2023-03-08T23:32:36.990Z,18.70
2023-03-08T23:35:05.120Z,17.70
2023-03-08T23:37:32.733Z,19.10
2023-03-08T23:40:00.370Z,18.10
2023-03-08T23:42:28.035Z,17.90
2023-03-08T23:44:55.598Z,18.90
2023-03-08T23:47:23.207Z,17.90
2023-03-08T23:49:51.671Z,17.00
2023-03-08T23:52:21.019Z,16.50
2023-03-08T23:54:48.732Z,14.90
2023-03-08T23:57:16.379Z,15.70
2023-03-08T23:59:44.128Z,16.40
